sensor_id;sensor_type;location;lat;lon;timestamp;P1;durP1;ratioP1;P2;durP2;ratioP2
7503;SDS011;3793;48.136;11.536;2023-08-01T00:00:05;4.88;;;2.88;;
7503;SDS011;3793;48.136;11.536;2023-08-01T00:02:33;3.33;;;2.55;;
7503;SDS011;3793;48.136;11.536;2023-08-01T00:05:02;4.45;;;2.50;;
7503;SDS011;3793;48.136;11.536;2023-08-01T00:07:29;3.97;;;2.70;;
7503;SDS011;3793;48.136;11.536;2023-08-01T00:09:56;3.22;;;2.60;;
7503;SDS011;3793;48.136;11.536;2023-08-01T00:12:23;6.30;;;2.63;;
7503;SDS011;3793;48.136;11.536;2023-08-01T00:21:23;4.75;;;2.60;;
7503;SDS011;3793;48.136;11.536;2023-08-01T00:23:50;3.45;;;2.55;;
7503;SDS011;3793;48.136;11.536;2023-08-01T00:26:17;2.97;;;2.47;;
7503;SDS011;3793;48.136;11.536;2023-08-01T00:28:44;3.30;;;2.42;;
7503;SDS011;3793;48.136;11.536;2023-08-01T00:31:10;4.60;;;2.50;;
7503;SDS011;3793;48.136;11.536;2023-08-01T00:33:38;3.83;;;2.63;;
7503;SDS011;3793;48.136;11.536;2023-08-01T00:36:05;3.22;;;2.55;;
7503;SDS011;3793;48.136;11.536;2023-08-01T00:38:35;2.72;;;2.42;;
7503;SDS011;3793;48.136;11.536;2023-08-01T00:41:02;4.93;;;2.53;;
7503;SDS011;3793;48.136;11.536;2023-08-01T00:43:29;4.28;;;2.88;;
7503;SDS011;3793;48.136;11.536;2023-08-01T00:45:58;5.55;;;2.88;;
7503;SDS011;3793;48.136;11.536;2023-08-01T00:48:26;4.53;;;2.50;;
7503;SDS011;3793;48.136;11.536;2023-08-01T00:50:54;3.08;;;2.50;;
7503;SDS011;3793;48.136;11.536;2023-08-01T00:53:21;4.80;;;2.67;;
7503;SDS011;3793;48.136;11.536;2023-08-01T00:55:50;2.90;;;2.50;;
7503;SDS011;3793;48.136;11.536;2023-08-01T00:58:18;4.13;;;2.42;;
7503;SDS011;3793;48.136;11.536;2023-08-01T01:00:45;4.53;;;2.50;;
7503;SDS011;3793;48.136;11.536;2023-08-01T01:03:12;3.72;;;2.50;;
7503;SDS011;3793;48.136;11.536;2023-08-01T01:05:39;3.45;;;3.10;;
7503;SDS011;3793;48.136;11.536;2023-08-01T01:08:09;3.67;;;2.50;;
7503;SDS011;3793;48.136;11.536;2023-08-01T01:10:36;4.97;;;2.75;;
7503;SDS011;3793;48.136;11.536;2023-08-01T01:13:04;6.68;;;2.83;;
7503;SDS011;3793;48.136;11.536;2023-08-01T01:15:31;3.70;;;2.60;;
7503;SDS011;3793;48.136;11.536;2023-08-01T01:17:58;4.03;;;2.72;;
7503;SDS011;3793;48.136;11.536;2023-08-01T01:22:58;3.70;;;2.90;;
7503;SDS011;3793;48.136;11.536;2023-08-01T01:25:25;3.45;;;2.30;;
7503;SDS011;3793;48.136;11.536;2023-08-01T01:27:52;3.92;;;2.67;;
7503;SDS011;3793;48.136;11.536;2023-08-01T01:30:20;4.50;;;3.00;;
7503;SDS011;3793;48.136;11.536;2023-08-01T01:32:48;3.80;;;2.70;;
7503;SDS011;3793;48.136;11.536;2023-08-01T01:35:15;3.50;;;2.90;;
7503;SDS011;3793;48.136;11.536;2023-08-01T01:37:43;3.40;;;2.45;;
7503;SDS011;3793;48.136;11.536;2023-08-01T01:40:10;4.63;;;2.72;;
7503;SDS011;3793;48.136;11.536;2023-08-01T01:42:37;2.90;;;2.53;;
7503;SDS011;3793;48.136;11.536;2023-08-01T01:45:07;5.07;;;2.80;;
7503;SDS011;3793;48.136;11.536;2023-08-01T01:47:34;3.28;;;2.97;;
7503;SDS011;3793;48.136;11.536;2023-08-01T01:50:01;4.70;;;2.70;;
7503;SDS011;3793;48.136;11.536;2023-08-01T01:52:30;3.13;;;2.83;;
7503;SDS011;3793;48.136;11.536;2023-08-01T01:55:08;3.47;;;2.65;;
7503;SDS011;3793;48.136;11.536;2023-08-01T02:00:35;4.80;;;2.58;;
7503;SDS011;3793;48.136;11.536;2023-08-01T02:13:09;3.17;;;2.88;;
7503;SDS011;3793;48.136;11.536;2023-08-01T02:15:36;4.07;;;2.90;;
7503;SDS011;3793;48.136;11.536;2023-08-01T02:18:03;5.88;;;3.05;;
7503;SDS011;3793;48.136;11.536;2023-08-01T02:20:30;3.20;;;2.90;;
7503;SDS011;3793;48.136;11.536;2023-08-01T02:22:57;5.63;;;2.83;;
7503;SDS011;3793;48.136;11.536;2023-08-01T02:25:24;3.33;;;2.78;;
7503;SDS011;3793;48.136;11.536;2023-08-01T02:27:51;3.92;;;2.50;;
7503;SDS011;3793;48.136;11.536;2023-08-01T02:30:19;2.80;;;2.50;;
7503;SDS011;3793;48.136;11.536;2023-08-01T02:32:46;3.95;;;3.03;;
7503;SDS011;3793;48.136;11.536;2023-08-01T02:35:12;4.60;;;2.95;;
7503;SDS011;3793;48.136;11.536;2023-08-01T02:37:39;4.07;;;2.97;;
7503;SDS011;3793;48.136;11.536;2023-08-01T02:40:07;5.47;;;3.08;;
7503;SDS011;3793;48.136;11.536;2023-08-01T02:42:35;3.67;;;2.83;;
7503;SDS011;3793;48.136;11.536;2023-08-01T02:45:02;4.72;;;2.53;;
7503;SDS011;3793;48.136;11.536;2023-08-01T02:47:31;3.40;;;3.00;;
7503;SDS011;3793;48.136;11.536;2023-08-01T02:49:58;4.07;;;2.83;;
7503;SDS011;3793;48.136;11.536;2023-08-01T02:52:24;3.58;;;3.10;;
7503;SDS011;3793;48.136;11.536;2023-08-01T02:54:51;4.85;;;3.20;;
7503;SDS011;3793;48.136;11.536;2023-08-01T02:57:18;3.47;;;2.70;;
7503;SDS011;3793;48.136;11.536;2023-08-01T02:59:45;3.20;;;2.85;;
7503;SDS011;3793;48.136;11.536;2023-08-01T03:02:12;4.05;;;3.28;;
7503;SDS011;3793;48.136;11.536;2023-08-01T03:04:40;4.50;;;3.03;;
7503;SDS011;3793;48.136;11.536;2023-08-01T03:07:07;5.97;;;2.85;;
7503;SDS011;3793;48.136;11.536;2023-08-01T03:09:34;3.05;;;2.55;;
7503;SDS011;3793;48.136;11.536;2023-08-01T03:12:01;3.75;;;2.92;;
7503;SDS011;3793;48.136;11.536;2023-08-01T03:14:28;6.10;;;3.15;;
7503;SDS011;3793;48.136;11.536;2023-08-01T03:16:55;3.78;;;3.00;;
7503;SDS011;3793;48.136;11.536;2023-08-01T03:19:22;3.53;;;2.80;;
7503;SDS011;3793;48.136;11.536;2023-08-01T03:21:50;4.85;;;3.00;;
7503;SDS011;3793;48.136;11.536;2023-08-01T03:24:17;3.60;;;3.05;;
7503;SDS011;3793;48.136;11.536;2023-08-01T03:26:44;4.38;;;2.80;;
7503;SDS011;3793;48.136;11.536;2023-08-01T03:29:11;3.80;;;3.10;;
7503;SDS011;3793;48.136;11.536;2023-08-01T03:31:38;3.85;;;2.80;;
7503;SDS011;3793;48.136;11.536;2023-08-01T03:34:05;3.78;;;2.92;;
7503;SDS011;3793;48.136;11.536;2023-08-01T03:36:33;3.30;;;2.85;;
7503;SDS011;3793;48.136;11.536;2023-08-01T03:39:02;4.03;;;3.30;;
7503;SDS011;3793;48.136;11.536;2023-08-01T03:41:30;4.70;;;3.03;;
7503;SDS011;3793;48.136;11.536;2023-08-01T03:43:58;4.45;;;3.15;;
7503;SDS011;3793;48.136;11.536;2023-08-01T03:46:25;5.55;;;3.70;;
7503;SDS011;3793;48.136;11.536;2023-08-01T03:48:52;3.47;;;2.90;;
7503;SDS011;3793;48.136;11.536;2023-08-01T03:51:19;3.95;;;3.30;;
7503;SDS011;3793;48.136;11.536;2023-08-01T03:53:46;5.40;;;3.28;;
7503;SDS011;3793;48.136;11.536;2023-08-01T03:56:14;4.15;;;2.45;;
7503;SDS011;3793;48.136;11.536;2023-08-01T03:58:41;3.90;;;3.20;;
7503;SDS011;3793;48.136;11.536;2023-08-01T04:01:08;4.63;;;3.08;;
7503;SDS011;3793;48.136;11.536;2023-08-01T04:03:34;5.50;;;3.30;;
7503;SDS011;3793;48.136;11.536;2023-08-01T04:06:01;4.70;;;3.40;;
7503;SDS011;3793;48.136;11.536;2023-08-01T04:08:28;4.47;;;3.38;;
7503;SDS011;3793;48.136;11.536;2023-08-01T04:10:55;5.10;;;3.60;;
7503;SDS011;3793;48.136;11.536;2023-08-01T04:13:23;5.40;;;3.35;;
7503;SDS011;3793;48.136;11.536;2023-08-01T04:15:50;4.57;;;3.30;;
7503;SDS011;3793;48.136;11.536;2023-08-01T04:18:17;4.30;;;3.00;;
7503;SDS011;3793;48.136;11.536;2023-08-01T04:20:44;6.95;;;3.63;;
7503;SDS011;3793;48.136;11.536;2023-08-01T04:23:12;4.50;;;3.42;;
7503;SDS011;3793;48.136;11.536;2023-08-01T04:25:40;6.25;;;3.47;;
7503;SDS011;3793;48.136;11.536;2023-08-01T04:28:07;4.63;;;3.90;;
7503;SDS011;3793;48.136;11.536;2023-08-01T04:30:35;4.05;;;3.00;;
7503;SDS011;3793;48.136;11.536;2023-08-01T04:33:03;3.78;;;3.22;;
7503;SDS011;3793;48.136;11.536;2023-08-01T04:35:30;3.83;;;3.45;;
7503;SDS011;3793;48.136;11.536;2023-08-01T04:37:57;4.28;;;3.10;;
7503;SDS011;3793;48.136;11.536;2023-08-01T04:40:24;6.88;;;4.13;;
7503;SDS011;3793;48.136;11.536;2023-08-01T04:42:51;6.22;;;3.47;;
7503;SDS011;3793;48.136;11.536;2023-08-01T04:45:18;5.00;;;3.65;;
7503;SDS011;3793;48.136;11.536;2023-08-01T04:47:47;6.30;;;3.40;;
7503;SDS011;3793;48.136;11.536;2023-08-01T04:50:14;5.38;;;3.65;;
7503;SDS011;3793;48.136;11.536;2023-08-01T04:52:41;5.05;;;3.17;;
7503;SDS011;3793;48.136;11.536;2023-08-01T04:55:08;6.05;;;4.32;;
7503;SDS011;3793;48.136;11.536;2023-08-01T04:57:37;4.47;;;3.38;;
7503;SDS011;3793;48.136;11.536;2023-08-01T05:00:05;5.45;;;3.58;;
7503;SDS011;3793;48.136;11.536;2023-08-01T05:02:33;5.15;;;3.50;;
7503;SDS011;3793;48.136;11.536;2023-08-01T05:05:01;5.72;;;4.10;;
7503;SDS011;3793;48.136;11.536;2023-08-01T05:07:29;6.93;;;3.78;;
7503;SDS011;3793;48.136;11.536;2023-08-01T05:09:56;7.45;;;5.22;;
7503;SDS011;3793;48.136;11.536;2023-08-01T05:12:23;7.50;;;5.15;;
7503;SDS011;3793;48.136;11.536;2023-08-01T05:14:49;7.72;;;4.30;;
7503;SDS011;3793;48.136;11.536;2023-08-01T05:17:19;8.80;;;4.90;;
7503;SDS011;3793;48.136;11.536;2023-08-01T05:19:46;6.53;;;4.80;;
7503;SDS011;3793;48.136;11.536;2023-08-01T05:22:15;7.00;;;4.47;;
7503;SDS011;3793;48.136;11.536;2023-08-01T05:24:42;8.43;;;4.97;;
7503;SDS011;3793;48.136;11.536;2023-08-01T05:27:08;8.18;;;4.53;;
7503;SDS011;3793;48.136;11.536;2023-08-01T05:29:35;18.02;;;7.38;;
7503;SDS011;3793;48.136;11.536;2023-08-01T05:32:02;10.30;;;5.03;;
7503;SDS011;3793;48.136;11.536;2023-08-01T05:34:30;10.02;;;4.63;;
7503;SDS011;3793;48.136;11.536;2023-08-01T05:36:56;6.05;;;4.55;;
7503;SDS011;3793;48.136;11.536;2023-08-01T05:39:25;8.13;;;4.22;;
7503;SDS011;3793;48.136;11.536;2023-08-01T05:41:52;6.75;;;4.47;;
7503;SDS011;3793;48.136;11.536;2023-08-01T05:44:19;5.30;;;4.20;;
7503;SDS011;3793;48.136;11.536;2023-08-01T05:46:45;7.80;;;4.32;;
7503;SDS011;3793;48.136;11.536;2023-08-01T05:49:12;6.70;;;3.72;;
7503;SDS011;3793;48.136;11.536;2023-08-01T05:51:39;4.82;;;4.00;;
7503;SDS011;3793;48.136;11.536;2023-08-01T05:54:06;5.60;;;3.80;;
7503;SDS011;3793;48.136;11.536;2023-08-01T05:56:34;6.20;;;4.15;;
7503;SDS011;3793;48.136;11.536;2023-08-01T05:59:01;6.93;;;4.45;;
7503;SDS011;3793;48.136;11.536;2023-08-01T06:01:28;6.82;;;4.22;;
7503;SDS011;3793;48.136;11.536;2023-08-01T06:03:55;5.57;;;3.33;;
7503;SDS011;3793;48.136;11.536;2023-08-01T06:06:23;4.70;;;3.65;;
7503;SDS011;3793;48.136;11.536;2023-08-01T06:08:50;5.65;;;3.88;;
7503;SDS011;3793;48.136;11.536;2023-08-01T06:11:17;5.72;;;3.72;;
7503;SDS011;3793;48.136;11.536;2023-08-01T06:13:45;4.70;;;3.90;;
7503;SDS011;3793;48.136;11.536;2023-08-01T06:16:12;4.60;;;3.58;;
7503;SDS011;3793;48.136;11.536;2023-08-01T06:18:39;7.88;;;4.00;;
7503;SDS011;3793;48.136;11.536;2023-08-01T06:21:06;5.40;;;3.88;;
7503;SDS011;3793;48.136;11.536;2023-08-01T06:23:32;5.68;;;3.70;;
7503;SDS011;3793;48.136;11.536;2023-08-01T06:25:59;6.18;;;4.15;;
7503;SDS011;3793;48.136;11.536;2023-08-01T06:28:26;5.97;;;3.72;;
7503;SDS011;3793;48.136;11.536;2023-08-01T06:30:54;5.20;;;3.83;;
7503;SDS011;3793;48.136;11.536;2023-08-01T06:33:21;6.57;;;4.10;;
7503;SDS011;3793;48.136;11.536;2023-08-01T06:35:48;4.70;;;3.20;;
7503;SDS011;3793;48.136;11.536;2023-08-01T06:38:15;6.05;;;3.65;;
7503;SDS011;3793;48.136;11.536;2023-08-01T06:40:42;7.07;;;4.00;;
7503;SDS011;3793;48.136;11.536;2023-08-01T06:43:11;6.70;;;3.45;;
7503;SDS011;3793;48.136;11.536;2023-08-01T06:45:40;4.30;;;3.53;;
7503;SDS011;3793;48.136;11.536;2023-08-01T06:48:09;5.25;;;3.50;;
7503;SDS011;3793;48.136;11.536;2023-08-01T06:50:35;6.00;;;3.15;;
7503;SDS011;3793;48.136;11.536;2023-08-01T06:53:02;4.45;;;3.00;;
7503;SDS011;3793;48.136;11.536;2023-08-01T06:55:29;6.05;;;3.53;;
7503;SDS011;3793;48.136;11.536;2023-08-01T06:57:56;6.47;;;3.70;;
7503;SDS011;3793;48.136;11.536;2023-08-01T07:00:23;4.60;;;3.00;;
7503;SDS011;3793;48.136;11.536;2023-08-01T07:02:49;3.70;;;2.90;;
7503;SDS011;3793;48.136;11.536;2023-08-01T07:05:18;4.32;;;3.08;;
7503;SDS011;3793;48.136;11.536;2023-08-01T07:07:44;5.38;;;3.13;;
7503;SDS011;3793;48.136;11.536;2023-08-01T07:10:11;4.13;;;3.35;;
7503;SDS011;3793;48.136;11.536;2023-08-01T07:12:38;6.28;;;3.55;;
7503;SDS011;3793;48.136;11.536;2023-08-01T07:15:05;3.72;;;3.03;;
7503;SDS011;3793;48.136;11.536;2023-08-01T07:17:34;4.38;;;2.97;;
7503;SDS011;3793;48.136;11.536;2023-08-01T07:20:00;5.18;;;3.22;;
7503;SDS011;3793;48.136;11.536;2023-08-01T07:22:29;4.65;;;2.88;;
7503;SDS011;3793;48.136;11.536;2023-08-01T07:24:56;5.40;;;3.63;;
7503;SDS011;3793;48.136;11.536;2023-08-01T07:27:22;3.63;;;2.97;;
7503;SDS011;3793;48.136;11.536;2023-08-01T07:29:49;4.30;;;3.13;;
7503;SDS011;3793;48.136;11.536;2023-08-01T07:32:16;3.70;;;2.95;;
7503;SDS011;3793;48.136;11.536;2023-08-01T07:34:43;4.68;;;3.20;;
7503;SDS011;3793;48.136;11.536;2023-08-01T07:37:09;3.75;;;3.15;;
7503;SDS011;3793;48.136;11.536;2023-08-01T07:39:38;3.42;;;2.75;;
7503;SDS011;3793;48.136;11.536;2023-08-01T07:42:05;6.18;;;3.10;;
7503;SDS011;3793;48.136;11.536;2023-08-01T07:44:31;4.07;;;3.13;;
7503;SDS011;3793;48.136;11.536;2023-08-01T07:46:58;5.13;;;3.00;;
7503;SDS011;3793;48.136;11.536;2023-08-01T07:49:25;4.20;;;3.38;;
7503;SDS011;3793;48.136;11.536;2023-08-01T07:51:52;4.05;;;3.08;;
7503;SDS011;3793;48.136;11.536;2023-08-01T07:54:19;3.42;;;2.70;;
7503;SDS011;3793;48.136;11.536;2023-08-01T07:56:47;4.45;;;2.80;;
7503;SDS011;3793;48.136;11.536;2023-08-01T07:59:14;5.18;;;2.90;;
7503;SDS011;3793;48.136;11.536;2023-08-01T08:01:41;4.05;;;3.00;;
7503;SDS011;3793;48.136;11.536;2023-08-01T08:04:08;5.70;;;3.30;;
7503;SDS011;3793;48.136;11.536;2023-08-01T08:06:35;3.67;;;2.65;;
7503;SDS011;3793;48.136;11.536;2023-08-01T08:09:02;4.20;;;3.00;;
7503;SDS011;3793;48.136;11.536;2023-08-01T08:11:29;7.35;;;3.35;;
7503;SDS011;3793;48.136;11.536;2023-08-01T08:13:57;4.95;;;2.95;;
7503;SDS011;3793;48.136;11.536;2023-08-01T08:16:24;5.47;;;2.85;;
7503;SDS011;3793;48.136;11.536;2023-08-01T08:18:51;4.80;;;2.75;;
7503;SDS011;3793;48.136;11.536;2023-08-01T08:21:18;3.85;;;2.60;;
7503;SDS011;3793;48.136;11.536;2023-08-01T08:23:45;4.13;;;3.03;;
7503;SDS011;3793;48.136;11.536;2023-08-01T08:26:12;5.22;;;3.08;;
7503;SDS011;3793;48.136;11.536;2023-08-01T08:28:39;3.97;;;2.90;;
7503;SDS011;3793;48.136;11.536;2023-08-01T08:31:08;4.03;;;2.95;;
7503;SDS011;3793;48.136;11.536;2023-08-01T08:33:35;3.65;;;2.85;;
7503;SDS011;3793;48.136;11.536;2023-08-01T08:36:02;3.50;;;2.78;;
7503;SDS011;3793;48.136;11.536;2023-08-01T08:38:29;5.63;;;3.10;;
7503;SDS011;3793;48.136;11.536;2023-08-01T08:40:59;4.50;;;3.22;;
7503;SDS011;3793;48.136;11.536;2023-08-01T08:43:32;3.10;;;2.63;;
7503;SDS011;3793;48.136;11.536;2023-08-01T08:46:00;4.53;;;3.05;;
7503;SDS011;3793;48.136;11.536;2023-08-01T08:48:30;3.97;;;2.75;;
7503;SDS011;3793;48.136;11.536;2023-08-01T08:50:58;4.22;;;2.95;;
7503;SDS011;3793;48.136;11.536;2023-08-01T08:53:25;4.47;;;3.25;;
7503;SDS011;3793;48.136;11.536;2023-08-01T08:55:53;4.53;;;2.85;;
7503;SDS011;3793;48.136;11.536;2023-08-01T08:58:20;4.60;;;3.55;;
7503;SDS011;3793;48.136;11.536;2023-08-01T09:00:47;3.70;;;3.05;;
7503;SDS011;3793;48.136;11.536;2023-08-01T09:03:14;5.57;;;3.10;;
7503;SDS011;3793;48.136;11.536;2023-08-01T09:05:44;4.85;;;3.15;;
7503;SDS011;3793;48.136;11.536;2023-08-01T09:08:13;3.42;;;3.08;;
7503;SDS011;3793;48.136;11.536;2023-08-01T09:10:42;5.32;;;3.08;;
7503;SDS011;3793;48.136;11.536;2023-08-01T09:13:09;3.75;;;2.90;;
7503;SDS011;3793;48.136;11.536;2023-08-01T09:15:36;6.00;;;3.60;;
7503;SDS011;3793;48.136;11.536;2023-08-01T09:18:05;4.43;;;3.20;;
7503;SDS011;3793;48.136;11.536;2023-08-01T09:20:39;5.28;;;3.45;;
7503;SDS011;3793;48.136;11.536;2023-08-01T09:23:09;4.88;;;3.60;;
7503;SDS011;3793;48.136;11.536;2023-08-01T09:25:37;5.75;;;3.40;;
7503;SDS011;3793;48.136;11.536;2023-08-01T09:28:14;5.68;;;3.65;;
7503;SDS011;3793;48.136;11.536;2023-08-01T09:30:45;4.63;;;3.65;;
7503;SDS011;3793;48.136;11.536;2023-08-01T09:33:13;4.78;;;3.47;;
7503;SDS011;3793;48.136;11.536;2023-08-01T09:35:40;4.43;;;3.85;;
7503;SDS011;3793;48.136;11.536;2023-08-01T09:38:10;6.05;;;3.45;;
7503;SDS011;3793;48.136;11.536;2023-08-01T09:40:39;5.15;;;3.35;;
7503;SDS011;3793;48.136;11.536;2023-08-01T09:43:06;5.70;;;3.33;;
7503;SDS011;3793;48.136;11.536;2023-08-01T09:45:33;4.53;;;3.50;;
7503;SDS011;3793;48.136;11.536;2023-08-01T09:48:00;4.35;;;3.53;;
7503;SDS011;3793;48.136;11.536;2023-08-01T09:50:27;5.63;;;3.05;;
7503;SDS011;3793;48.136;11.536;2023-08-01T09:52:54;3.78;;;3.00;;
7503;SDS011;3793;48.136;11.536;2023-08-01T09:55:25;5.10;;;3.05;;
7503;SDS011;3793;48.136;11.536;2023-08-01T09:57:53;4.97;;;3.35;;
7503;SDS011;3793;48.136;11.536;2023-08-01T10:00:25;3.45;;;2.70;;
7503;SDS011;3793;48.136;11.536;2023-08-01T10:02:52;6.00;;;3.10;;
7503;SDS011;3793;48.136;11.536;2023-08-01T10:05:19;3.90;;;3.20;;
7503;SDS011;3793;48.136;11.536;2023-08-01T10:07:46;4.68;;;3.45;;
7503;SDS011;3793;48.136;11.536;2023-08-01T10:10:14;3.83;;;3.20;;
7503;SDS011;3793;48.136;11.536;2023-08-01T10:12:44;4.93;;;3.50;;
7503;SDS011;3793;48.136;11.536;2023-08-01T10:15:13;4.57;;;3.25;;
7503;SDS011;3793;48.136;11.536;2023-08-01T10:17:40;4.72;;;3.13;;
7503;SDS011;3793;48.136;11.536;2023-08-01T10:20:08;5.80;;;3.22;;
7503;SDS011;3793;48.136;11.536;2023-08-01T10:22:36;4.78;;;3.50;;
7503;SDS011;3793;48.136;11.536;2023-08-01T10:25:03;4.07;;;3.20;;
7503;SDS011;3793;48.136;11.536;2023-08-01T10:27:31;3.40;;;2.97;;
7503;SDS011;3793;48.136;11.536;2023-08-01T10:30:02;4.53;;;3.15;;
7503;SDS011;3793;48.136;11.536;2023-08-01T10:32:31;4.25;;;2.97;;
7503;SDS011;3793;48.136;11.536;2023-08-01T10:34:59;3.58;;;2.92;;
7503;SDS011;3793;48.136;11.536;2023-08-01T10:37:26;4.50;;;3.03;;
7503;SDS011;3793;48.136;11.536;2023-08-01T10:39:57;6.57;;;3.67;;
7503;SDS011;3793;48.136;11.536;2023-08-01T10:42:24;5.30;;;3.92;;
7503;SDS011;3793;48.136;11.536;2023-08-01T10:44:52;6.18;;;3.33;;
7503;SDS011;3793;48.136;11.536;2023-08-01T10:47:26;3.88;;;3.10;;
7503;SDS011;3793;48.136;11.536;2023-08-01T10:49:53;5.82;;;3.08;;
7503;SDS011;3793;48.136;11.536;2023-08-01T10:52:21;4.70;;;3.20;;
7503;SDS011;3793;48.136;11.536;2023-08-01T10:54:55;5.60;;;3.30;;
7503;SDS011;3793;48.136;11.536;2023-08-01T10:57:23;5.43;;;3.28;;
7503;SDS011;3793;48.136;11.536;2023-08-01T10:59:51;3.17;;;2.88;;
7503;SDS011;3793;48.136;11.536;2023-08-01T11:02:21;6.60;;;3.33;;
7503;SDS011;3793;48.136;11.536;2023-08-01T11:04:57;4.22;;;3.08;;
7503;SDS011;3793;48.136;11.536;2023-08-01T11:07:25;3.33;;;2.85;;
7503;SDS011;3793;48.136;11.536;2023-08-01T11:10:02;3.67;;;3.10;;
7503;SDS011;3793;48.136;11.536;2023-08-01T11:12:33;4.40;;;2.50;;
7503;SDS011;3793;48.136;11.536;2023-08-01T11:15:02;4.22;;;2.50;;
7503;SDS011;3793;48.136;11.536;2023-08-01T11:17:31;6.20;;;2.63;;
7503;SDS011;3793;48.136;11.536;2023-08-01T11:20:04;3.25;;;2.13;;
7503;SDS011;3793;48.136;11.536;2023-08-01T11:27:48;3.50;;;1.90;;
7503;SDS011;3793;48.136;11.536;2023-08-01T11:33:12;2.28;;;1.95;;
7503;SDS011;3793;48.136;11.536;2023-08-01T11:35:56;3.78;;;2.40;;
7503;SDS011;3793;48.136;11.536;2023-08-01T11:38:28;3.55;;;2.10;;
7503;SDS011;3793;48.136;11.536;2023-08-01T11:40:56;2.67;;;2.30;;
7503;SDS011;3793;48.136;11.536;2023-08-01T11:43:24;3.20;;;2.28;;
7503;SDS011;3793;48.136;11.536;2023-08-01T11:45:51;4.80;;;2.92;;
7503;SDS011;3793;48.136;11.536;2023-08-01T11:48:19;3.55;;;2.40;;
7503;SDS011;3793;48.136;11.536;2023-08-01T11:50:49;5.10;;;2.45;;
7503;SDS011;3793;48.136;11.536;2023-08-01T11:53:26;4.82;;;2.70;;
7503;SDS011;3793;48.136;11.536;2023-08-01T11:55:53;4.40;;;2.50;;
7503;SDS011;3793;48.136;11.536;2023-08-01T11:58:28;3.58;;;2.58;;
7503;SDS011;3793;48.136;11.536;2023-08-01T12:01:01;4.47;;;3.10;;
7503;SDS011;3793;48.136;11.536;2023-08-01T12:03:30;3.33;;;2.40;;
7503;SDS011;3793;48.136;11.536;2023-08-01T12:06:04;3.80;;;2.58;;
7503;SDS011;3793;48.136;11.536;2023-08-01T12:08:33;3.83;;;2.83;;
7503;SDS011;3793;48.136;11.536;2023-08-01T12:11:01;3.90;;;2.80;;
7503;SDS011;3793;48.136;11.536;2023-08-01T12:13:29;3.15;;;2.60;;
7503;SDS011;3793;48.136;11.536;2023-08-01T12:15:59;3.95;;;2.70;;
7503;SDS011;3793;48.136;11.536;2023-08-01T12:18:31;4.60;;;2.65;;
7503;SDS011;3793;48.136;11.536;2023-08-01T12:20:58;3.33;;;2.15;;
7503;SDS011;3793;48.136;11.536;2023-08-01T12:23:27;4.43;;;2.70;;
7503;SDS011;3793;48.136;11.536;2023-08-01T12:26:08;3.33;;;2.58;;
7503;SDS011;3793;48.136;11.536;2023-08-01T12:28:40;3.25;;;2.45;;
7503;SDS011;3793;48.136;11.536;2023-08-01T12:31:08;2.95;;;2.30;;
7503;SDS011;3793;48.136;11.536;2023-08-01T12:33:37;2.53;;;2.10;;
7503;SDS011;3793;48.136;11.536;2023-08-01T12:36:05;3.80;;;2.00;;
7503;SDS011;3793;48.136;11.536;2023-08-01T12:38:49;2.60;;;1.98;;
7503;SDS011;3793;48.136;11.536;2023-08-01T12:41:29;2.60;;;2.00;;
7503;SDS011;3793;48.136;11.536;2023-08-01T12:43:56;2.60;;;2.08;;
7503;SDS011;3793;48.136;11.536;2023-08-01T12:46:24;3.17;;;2.35;;
7503;SDS011;3793;48.136;11.536;2023-08-01T12:48:51;2.67;;;2.17;;
7503;SDS011;3793;48.136;11.536;2023-08-01T12:51:21;2.80;;;2.10;;
7503;SDS011;3793;48.136;11.536;2023-08-01T12:53:54;3.75;;;2.28;;
7503;SDS011;3793;48.136;11.536;2023-08-01T12:56:22;2.90;;;2.13;;
7503;SDS011;3793;48.136;11.536;2023-08-01T12:58:49;4.97;;;2.63;;
7503;SDS011;3793;48.136;11.536;2023-08-01T13:01:16;2.95;;;2.38;;
7503;SDS011;3793;48.136;11.536;2023-08-01T13:03:44;3.47;;;2.40;;
7503;SDS011;3793;48.136;11.536;2023-08-01T13:06:13;2.55;;;2.33;;
7503;SDS011;3793;48.136;11.536;2023-08-01T13:08:40;2.35;;;1.98;;
7503;SDS011;3793;48.136;11.536;2023-08-01T13:11:12;2.22;;;2.00;;
7503;SDS011;3793;48.136;11.536;2023-08-01T13:13:40;2.65;;;1.92;;
7503;SDS011;3793;48.136;11.536;2023-08-01T13:16:08;4.38;;;2.20;;
7503;SDS011;3793;48.136;11.536;2023-08-01T13:18:36;2.30;;;2.10;;
7503;SDS011;3793;48.136;11.536;2023-08-01T13:21:08;2.80;;;2.47;;
7503;SDS011;3793;48.136;11.536;2023-08-01T13:23:41;3.20;;;2.33;;
7503;SDS011;3793;48.136;11.536;2023-08-01T13:26:09;3.58;;;2.05;;
7503;SDS011;3793;48.136;11.536;2023-08-01T13:28:39;2.78;;;2.22;;
7503;SDS011;3793;48.136;11.536;2023-08-01T13:31:15;3.55;;;2.30;;
7503;SDS011;3793;48.136;11.536;2023-08-01T13:33:43;3.35;;;2.58;;
7503;SDS011;3793;48.136;11.536;2023-08-01T13:36:11;2.90;;;1.80;;
7503;SDS011;3793;48.136;11.536;2023-08-01T13:38:40;3.28;;;2.60;;
7503;SDS011;3793;48.136;11.536;2023-08-01T13:41:08;3.10;;;2.47;;
7503;SDS011;3793;48.136;11.536;2023-08-01T13:43:39;6.75;;;2.10;;
7503;SDS011;3793;48.136;11.536;2023-08-01T13:46:12;2.80;;;2.10;;
7503;SDS011;3793;48.136;11.536;2023-08-01T13:48:40;3.00;;;2.42;;
7503;SDS011;3793;48.136;11.536;2023-08-01T13:51:08;4.13;;;2.33;;
7503;SDS011;3793;48.136;11.536;2023-08-01T13:53:35;2.60;;;2.40;;
7503;SDS011;3793;48.136;11.536;2023-08-01T13:56:06;4.35;;;2.40;;
7503;SDS011;3793;48.136;11.536;2023-08-01T13:58:39;4.50;;;2.38;;
7503;SDS011;3793;48.136;11.536;2023-08-01T14:01:07;4.78;;;2.40;;
7503;SDS011;3793;48.136;11.536;2023-08-01T14:03:36;4.35;;;2.55;;
7503;SDS011;3793;48.136;11.536;2023-08-01T14:06:11;3.45;;;2.30;;
7503;SDS011;3793;48.136;11.536;2023-08-01T14:08:51;3.63;;;2.00;;
7503;SDS011;3793;48.136;11.536;2023-08-01T14:11:43;2.85;;;2.28;;
7503;SDS011;3793;48.136;11.536;2023-08-01T14:14:20;2.78;;;2.50;;
7503;SDS011;3793;48.136;11.536;2023-08-01T14:16:53;2.80;;;2.17;;
7503;SDS011;3793;48.136;11.536;2023-08-01T14:19:23;4.57;;;2.45;;
7503;SDS011;3793;48.136;11.536;2023-08-01T14:21:55;3.38;;;2.42;;
7503;SDS011;3793;48.136;11.536;2023-08-01T14:24:27;5.93;;;2.80;;
7503;SDS011;3793;48.136;11.536;2023-08-01T14:27:19;3.13;;;2.28;;
7503;SDS011;3793;48.136;11.536;2023-08-01T14:33:36;5.18;;;2.83;;
7503;SDS011;3793;48.136;11.536;2023-08-01T14:36:14;2.60;;;1.77;;
7503;SDS011;3793;48.136;11.536;2023-08-01T14:38:50;2.38;;;1.83;;
7503;SDS011;3793;48.136;11.536;2023-08-01T14:41:30;2.90;;;1.90;;
7503;SDS011;3793;48.136;11.536;2023-08-01T14:44:35;2.60;;;1.45;;
7503;SDS011;3793;48.136;11.536;2023-08-01T14:47:03;2.17;;;1.67;;
7503;SDS011;3793;48.136;11.536;2023-08-01T14:55:08;2.20;;;1.60;;
7503;SDS011;3793;48.136;11.536;2023-08-01T14:57:39;2.00;;;1.80;;
7503;SDS011;3793;48.136;11.536;2023-08-01T15:00:23;4.03;;;1.77;;
7503;SDS011;3793;48.136;11.536;2023-08-01T15:03:11;2.22;;;1.67;;
7503;SDS011;3793;48.136;11.536;2023-08-01T15:05:43;2.90;;;1.88;;
7503;SDS011;3793;48.136;11.536;2023-08-01T15:08:11;2.38;;;1.73;;
7503;SDS011;3793;48.136;11.536;2023-08-01T15:10:41;2.78;;;1.83;;
7503;SDS011;3793;48.136;11.536;2023-08-01T15:13:09;1.83;;;1.60;;
7503;SDS011;3793;48.136;11.536;2023-08-01T15:15:37;3.15;;;1.88;;
7503;SDS011;3793;48.136;11.536;2023-08-01T15:18:04;3.55;;;1.58;;
7503;SDS011;3793;48.136;11.536;2023-08-01T15:20:32;2.15;;;1.70;;
7503;SDS011;3793;48.136;11.536;2023-08-01T15:23:04;2.50;;;1.90;;
7503;SDS011;3793;48.136;11.536;2023-08-01T15:25:33;3.30;;;1.88;;
7503;SDS011;3793;48.136;11.536;2023-08-01T15:28:01;3.03;;;1.50;;
7503;SDS011;3793;48.136;11.536;2023-08-01T15:30:28;2.50;;;1.75;;
7503;SDS011;3793;48.136;11.536;2023-08-01T15:32:55;2.60;;;2.00;;
7503;SDS011;3793;48.136;11.536;2023-08-01T15:35:25;1.58;;;1.42;;
7503;SDS011;3793;48.136;11.536;2023-08-01T15:37:57;2.25;;;1.48;;
7503;SDS011;3793;48.136;11.536;2023-08-01T15:43:16;1.80;;;1.50;;
7503;SDS011;3793;48.136;11.536;2023-08-01T15:46:03;2.55;;;1.65;;
7503;SDS011;3793;48.136;11.536;2023-08-01T15:48:45;1.38;;;1.27;;
7503;SDS011;3793;48.136;11.536;2023-08-01T15:51:14;2.05;;;1.42;;